Time;durP1;ratioP1;P1;durP2;ratioP2;P2;SDS_P1;SDS_P2;PMS_P1;PMS_P2;Temp;Humidity;BMP_temperature;BMP_pressure;BME280_temperature;BME280_humidity;BME280_pressure;Samples;Min_cycle;Max_cycle;Signal;HPM_P1;HPM_P2
2021/09/15 00:00:03;;;;;;;1.70;0.55;;;17.80;65.50;;;;;;5114345;28;20020;-69
2021/09/15 00:02:31;;;;;;;0.95;0.55;;;17.80;65.30;;;;;;5113069;28;20385;-66
2021/09/15 00:04:59;;;;;;;1.30;0.63;;;17.90;65.30;;;;;;5111806;28;20027;-67
2021/09/15 00:07:26;;;;;;;2.45;0.70;;;17.90;65.10;;;;;;5085615;28;20077;-70
2021/09/15 00:09:53;;;;;;;1.50;0.43;;;18.00;64.90;;;;;;5106242;28;20027;-68
2021/09/15 00:12:21;;;;;;;2.30;0.65;;;18.10;64.70;;;;;;5110750;28;20383;-68
2021/09/15 00:14:48;;;;;;;1.15;0.55;;;18.10;64.70;;;;;;5110700;28;20019;-70
2021/09/15 00:17:16;;;;;;;1.48;0.57;;;18.20;64.40;;;;;;5111602;28;20472;-68
2021/09/15 00:19:46;;;;;;;1.50;0.60;;;18.20;64.40;;;;;;5111292;28;20432;-61
2021/09/15 00:22:14;;;;;;;3.60;0.80;;;18.30;64.00;;;;;;5111400;28;20466;-72
2021/09/15 00:24:41;;;;;;;2.97;0.80;;;18.30;64.00;;;;;;5093109;28;20043;-66
2021/09/15 00:27:08;;;;;;;2.08;0.80;;;18.40;64.00;;;;;;5111290;28;20047;-66
2021/09/15 00:29:38;;;;;;;2.28;0.60;;;18.40;63.70;;;;;;5110859;28;20015;-71
2021/09/15 00:32:06;;;;;;;2.53;0.60;;;18.40;63.50;;;;;;5093118;28;20031;-76
2021/09/15 00:34:34;;;;;;;2.53;0.60;;;18.50;63.70;;;;;;5111796;28;20035;-69
2021/09/15 00:37:01;;;;;;;3.10;0.73;;;18.50;63.80;;;;;;5110911;28;20397;-70
2021/09/15 00:39:29;;;;;;;0.40;0.38;;;18.50;63.80;;;;;;5092484;28;20023;-70
2021/09/15 00:41:56;;;;;;;1.02;0.52;;;18.60;64.40;;;;;;5111204;28;20055;-66
2021/09/15 00:44:24;;;;;;;3.22;0.60;;;18.60;63.60;;;;;;5110599;28;20131;-67
2021/09/15 00:46:51;;;;;;;1.15;0.50;;;18.60;63.60;;;;;;5093256;28;20035;-74
2021/09/15 00:49:19;;;;;;;1.65;0.90;;;18.60;63.60;;;;;;5111627;28;20027;-73
2021/09/15 00:51:46;;;;;;;1.63;0.60;;;18.60;63.60;;;;;;5092982;28;20122;-67
2021/09/15 00:54:16;;;;;;;3.08;0.50;;;18.70;63.50;;;;;;5111323;28;20023;-70
2021/09/15 00:56:50;;;;;;;1.30;0.50;;;18.70;63.40;;;;;;5112161;28;20466;-63
2021/09/15 00:59:17;;;;;;;1.85;0.70;;;18.70;63.30;;;;;;5111862;28;20096;-65
2021/09/15 01:01:45;;;;;;;1.67;0.70;;;18.80;63.30;;;;;;5093939;28;20028;-71
2021/09/15 01:04:13;;;;;;;1.98;0.82;;;18.90;63.10;;;;;;5093361;28;20042;-64
2021/09/15 01:06:45;;;;;;;1.40;0.68;;;18.80;63.00;;;;;;5112221;28;20051;-66
2021/09/15 01:09:13;;;;;;;1.80;0.40;;;18.90;63.00;;;;;;5112966;28;20092;-67
2021/09/15 01:11:42;;;;;;;1.02;0.38;;;18.90;62.30;;;;;;5111672;28;20109;-70
2021/09/15 01:14:10;;;;;;;2.35;0.55;;;19.00;62.70;;;;;;5111557;28;20043;-67
2021/09/15 01:17:00;;;;;;;3.28;0.80;;;19.00;62.80;;;;;;5092385;28;20031;-66
2021/09/15 01:19:28;;;;;;;5.07;0.70;;;19.00;63.10;;;;;;5110667;28;20018;-63
2021/09/15 01:21:56;;;;;;;1.20;0.47;;;19.10;62.80;;;;;;5110141;28;20100;-67
2021/09/15 01:24:29;;;;;;;1.23;0.68;;;19.10;62.60;;;;;;5110616;28;20103;-63
2021/09/15 01:27:03;;;;;;;1.30;0.50;;;19.10;62.70;;;;;;5093001;28;20111;-66
2021/09/15 01:29:35;;;;;;;2.05;0.50;;;19.10;62.50;;;;;;5091408;28;20126;-65
2021/09/15 01:32:04;;;;;;;1.23;0.30;;;19.10;62.60;;;;;;5091285;28;20043;-61
2021/09/15 01:34:44;;;;;;;1.75;0.70;;;19.20;62.60;;;;;;5111476;28;20482;-73
2021/09/15 01:37:15;;;;;;;1.20;0.68;;;19.20;62.40;;;;;;5106401;28;20046;-71
2021/09/15 01:39:43;;;;;;;0.73;0.50;;;19.20;62.60;;;;;;5090621;28;20063;-71
2021/09/15 01:42:11;;;;;;;1.95;0.60;;;19.20;62.90;;;;;;5070950;28;20026;-70
2021/09/15 01:44:40;;;;;;;2.42;0.70;;;19.20;63.00;;;;;;5089051;28;20040;-65
2021/09/15 01:47:10;;;;;;;1.10;0.60;;;19.30;62.50;;;;;;5089412;28;20028;-66
2021/09/15 01:49:40;;;;;;;1.90;0.60;;;19.30;63.10;;;;;;5089177;28;20020;-64
2021/09/15 01:52:09;;;;;;;1.85;0.60;;;19.30;62.40;;;;;;5088443;28;20074;-66
2021/09/15 01:54:37;;;;;;;3.38;0.90;;;19.40;62.30;;;;;;5089656;28;20024;-72
2021/09/15 01:57:05;;;;;;;3.45;0.55;;;19.40;62.30;;;;;;5089383;28;20081;-65
2021/09/15 01:59:33;;;;;;;3.28;0.90;;;19.50;62.10;;;;;;5089274;28;20020;-68
2021/09/15 02:02:00;;;;;;;2.13;0.73;;;19.50;62.00;;;;;;5089119;28;20027;-70
2021/09/15 02:04:27;;;;;;;2.20;0.50;;;19.50;62.10;;;;;;5089340;28;20020;-71
2021/09/15 02:07:04;;;;;;;0.70;0.50;;;19.50;61.90;;;;;;5088723;28;20103;-65
2021/09/15 02:09:32;;;;;;;2.08;0.40;;;19.50;62.30;;;;;;5070309;28;20028;-68
2021/09/15 02:11:59;;;;;;;0.98;0.50;;;19.50;61.90;;;;;;5088619;28;20031;-69
2021/09/15 02:14:27;;;;;;;3.85;0.85;;;19.60;62.30;;;;;;5089241;28;20027;-58
2021/09/15 02:16:54;;;;;;;4.25;0.95;;;19.60;62.00;;;;;;5088204;28;20085;-54
2021/09/15 02:19:22;;;;;;;4.45;0.88;;;19.80;60.20;;;;;;5089068;28;20451;-59
2021/09/15 02:21:49;;;;;;;2.40;0.47;;;19.80;59.80;;;;;;5087865;28;20496;-56
2021/09/15 02:24:18;;;;;;;4.72;1.30;;;19.90;59.70;;;;;;5070576;28;20028;-56
2021/09/15 02:26:45;;;;;;;3.33;0.50;;;19.90;58.80;;;;;;5088672;28;20020;-56
2021/09/15 02:29:13;;;;;;;3.30;0.65;;;19.90;59.40;;;;;;5089278;28;20067;-51
2021/09/15 02:31:40;;;;;;;8.27;0.93;;;19.90;58.60;;;;;;5089259;28;20039;-55
2021/09/15 02:34:13;;;;;;;2.22;0.68;;;19.90;58.50;;;;;;5088662;28;20489;-56
2021/09/15 02:36:41;;;;;;;4.15;1.05;;;19.90;58.50;;;;;;5088219;28;20131;-60
2021/09/15 02:39:08;;;;;;;1.83;0.75;;;19.90;58.00;;;;;;5088337;28;20085;-55
2021/09/15 02:41:36;;;;;;;5.57;0.90;;;19.90;56.30;;;;;;5088029;28;20454;-58
2021/09/15 02:44:04;;;;;;;7.70;0.80;;;19.90;57.20;;;;;;5087551;28;20032;-55
2021/09/15 02:46:32;;;;;;;2.45;0.70;;;19.90;57.30;;;;;;5088136;28;20103;-57
2021/09/15 02:49:00;;;;;;;3.15;0.82;;;19.90;57.10;;;;;;5088304;28;20024;-53
2021/09/15 02:51:27;;;;;;;2.55;0.90;;;19.90;57.20;;;;;;5087599;28;20162;-58
2021/09/15 02:53:55;;;;;;;0.95;0.60;;;19.90;56.80;;;;;;5087777;28;20032;-58
2021/09/15 02:56:22;;;;;;;2.58;0.55;;;19.90;56.70;;;;;;5070087;28;20032;-59
2021/09/15 02:58:50;;;;;;;3.45;1.00;;;19.90;56.60;;;;;;5106080;28;20032;-74
2021/09/15 03:01:17;;;;;;;7.43;0.70;;;19.70;58.20;;;;;;5109901;28;20123;-71
2021/09/15 03:03:45;;;;;;;3.13;0.90;;;19.60;58.90;;;;;;5109702;28;20028;-67
2021/09/15 03:06:12;;;;;;;1.05;0.55;;;19.60;59.10;;;;;;5109856;28;20073;-72
2021/09/15 03:08:40;;;;;;;2.50;0.80;;;19.60;59.20;;;;;;5109875;28;20466;-69
2021/09/15 03:11:08;;;;;;;1.67;0.90;;;19.60;59.30;;;;;;5108542;28;20020;-66
2021/09/15 03:13:59;;;;;;;5.28;1.75;;;19.50;59.60;;;;;;5099436;28;20050;-71
2021/09/15 03:16:26;;;;;;;6.57;3.85;;;19.60;59.80;;;;;;5106490;28;20042;-70
2021/09/15 03:19:02;;;;;;;14.90;7.03;;;19.60;59.80;;;;;;5106997;28;20062;-68
2021/09/15 03:21:29;;;;;;;21.63;11.43;;;19.60;60.20;;;;;;5108151;28;20511;-72
2021/09/15 03:23:57;;;;;;;38.95;17.13;;;19.70;60.00;;;;;;5106632;28;20032;-71
2021/09/15 03:26:25;;;;;;;48.67;24.02;;;19.70;60.00;;;;;;5090251;28;20026;-70
2021/09/15 03:28:52;;;;;;;53.28;27.85;;;19.80;60.50;;;;;;5111915;27;20027;-67
2021/09/15 03:31:20;;;;;;;57.95;29.80;;;19.80;60.70;;;;;;5112435;28;20034;-68
2021/09/15 03:33:53;;;;;;;59.05;29.60;;;19.80;60.40;;;;;;5109465;28;20420;-69
2021/09/15 03:36:21;;;;;;;62.90;32.08;;;19.80;60.90;;;;;;5106098;28;20408;-71
2021/09/15 03:38:48;;;;;;;74.78;35.45;;;19.90;60.30;;;;;;5111305;28;20124;-63
2021/09/15 03:41:16;;;;;;;69.72;34.90;;;19.90;60.30;;;;;;5107593;28;20012;-67
2021/09/15 03:43:44;;;;;;;63.70;33.85;;;19.90;60.30;;;;;;5110270;27;20027;-70
2021/09/15 03:46:11;;;;;;;66.90;33.97;;;20.00;60.70;;;;;;5102294;28;20044;-68
2021/09/15 03:48:41;;;;;;;63.20;32.08;;;19.90;60.30;;;;;;5107183;28;20044;-66
2021/09/15 03:51:09;;;;;;;65.60;32.97;;;20.00;60.40;;;;;;5107690;28;20023;-65
2021/09/15 03:53:43;;;;;;;75.55;37.25;;;20.00;60.30;;;;;;5107725;28;20024;-63
2021/09/15 03:56:14;;;;;;;76.32;37.30;;;20.00;60.80;;;;;;5087943;28;20115;-67
2021/09/15 03:58:42;;;;;;;84.22;39.17;;;20.00;60.60;;;;;;5110385;28;20035;-70
2021/09/15 04:01:11;;;;;;;70.68;35.97;;;20.00;60.70;;;;;;5111377;28;20362;-64
2021/09/15 04:03:41;;;;;;;68.63;34.75;;;20.00;60.60;;;;;;5110219;28;20043;-65
2021/09/15 04:06:09;;;;;;;57.08;30.75;;;20.00;60.90;;;;;;5102916;28;20509;-65
2021/09/15 04:08:37;;;;;;;71.75;35.20;;;20.00;60.80;;;;;;5110900;28;20031;-69
2021/09/15 04:11:04;;;;;;;67.40;32.40;;;20.00;61.10;;;;;;5106294;28;20027;-64
2021/09/15 04:13:32;;;;;;;69.13;34.97;;;19.90;61.30;;;;;;5109841;28;20586;-66
2021/09/15 04:15:59;;;;;;;65.18;34.65;;;19.90;61.40;;;;;;5102557;28;20038;-62
2021/09/15 04:18:26;;;;;;;59.45;32.05;;;20.00;61.60;;;;;;5107090;28;20118;-60
2021/09/15 04:20:54;;;;;;;69.45;33.85;;;19.90;61.50;;;;;;5106559;28;20031;-68
2021/09/15 04:23:29;;;;;;;61.00;29.77;;;20.00;61.60;;;;;;5106199;28;20354;-69
2021/09/15 04:31:27;;;;;;;54.40;29.55;;;20.00;61.70;;;;;;5110520;28;20488;-67
2021/09/15 04:33:55;;;;;;;54.88;27.88;;;20.00;61.50;;;;;;5100245;28;20036;-70
2021/09/15 04:36:26;;;;;;;56.35;28.00;;;20.00;61.80;;;;;;5090877;28;20395;-72
2021/09/15 04:38:53;;;;;;;52.80;29.00;;;20.00;62.00;;;;;;5091237;28;20050;-73
2021/09/15 04:41:21;;;;;;;53.58;29.13;;;20.00;61.90;;;;;;5093223;28;20549;-73
2021/09/15 04:43:48;;;;;;;59.40;29.42;;;20.00;61.90;;;;;;5097261;28;20047;-74
2021/09/15 04:46:16;;;;;;;49.63;28.08;;;19.90;62.00;;;;;;5096259;28;20081;-66
2021/09/15 04:48:44;;;;;;;57.83;28.25;;;19.90;61.90;;;;;;5092906;28;20039;-69
2021/09/15 04:51:13;;;;;;;55.15;26.65;;;19.90;62.00;;;;;;5090988;28;20475;-68
2021/09/15 04:53:40;;;;;;;43.15;23.75;;;19.80;62.30;;;;;;5090769;28;20458;-68
2021/09/15 04:56:07;;;;;;;46.92;22.75;;;19.80;62.30;;;;;;5091498;28;20028;-76
2021/09/15 04:58:35;;;;;;;45.22;24.65;;;19.70;62.10;;;;;;5091113;28;20048;-72
2021/09/15 05:01:02;;;;;;;49.42;24.75;;;19.70;62.80;;;;;;5091189;28;20021;-76
2021/09/15 05:03:30;;;;;;;43.28;21.48;;;19.60;63.00;;;;;;5091284;28;20024;-72
2021/09/15 05:05:57;;;;;;;41.28;20.13;;;19.60;62.30;;;;;;5073431;28;20024;-74
2021/09/15 05:08:25;;;;;;;44.42;25.20;;;19.60;63.20;;;;;;5091429;28;20029;-75
2021/09/15 05:10:52;;;;;;;44.05;22.90;;;19.60;63.10;;;;;;5091378;28;20466;-73
2021/09/15 05:13:20;;;;;;;40.70;21.05;;;19.50;63.50;;;;;;5091590;28;20024;-72
2021/09/15 05:15:47;;;;;;;46.63;23.45;;;19.50;63.50;;;;;;5093348;28;20095;-69
2021/09/15 05:18:15;;;;;;;42.85;21.33;;;19.50;63.80;;;;;;5091137;28;20027;-72
2021/09/15 05:20:42;;;;;;;42.40;21.33;;;19.40;63.70;;;;;;5091775;28;20032;-71
2021/09/15 05:23:10;;;;;;;36.95;18.27;;;19.40;63.60;;;;;;5090719;28;20024;-68
2021/09/15 05:25:37;;;;;;;40.35;20.63;;;19.40;63.70;;;;;;5090723;28;20506;-70
2021/09/15 05:28:05;;;;;;;40.13;20.67;;;19.40;63.50;;;;;;5073449;28;20077;-66
2021/09/15 05:30:33;;;;;;;35.97;20.15;;;19.40;64.30;;;;;;5090436;28;20059;-64
2021/09/15 05:33:01;;;;;;;35.67;18.58;;;19.40;63.90;;;;;;5090642;28;20028;-66
2021/09/15 05:35:28;;;;;;;28.00;16.77;;;19.40;63.80;;;;;;5072018;28;20103;-67
2021/09/15 05:37:56;;;;;;;37.22;18.27;;;19.40;63.60;;;;;;5089429;28;20040;-66
2021/09/15 05:40:23;;;;;;;38.42;19.85;;;19.40;63.80;;;;;;5090784;28;20021;-67
2021/09/15 05:42:54;;;;;;;33.35;18.40;;;19.40;64.10;;;;;;5096760;28;20023;-65
2021/09/15 05:45:21;;;;;;;35.00;16.98;;;19.40;64.10;;;;;;5108791;28;20071;-68
2021/09/15 05:47:49;;;;;;;31.60;14.90;;;19.40;64.50;;;;;;5109384;28;20434;-67
2021/09/15 05:50:16;;;;;;;26.67;15.82;;;19.40;63.40;;;;;;5109520;28;20075;-62
2021/09/15 05:52:44;;;;;;;29.35;15.18;;;19.40;63.80;;;;;;5080323;28;20062;-71
2021/09/15 05:55:11;;;;;;;31.40;15.35;;;19.50;63.50;;;;;;5108762;28;20114;-68
2021/09/15 05:57:39;;;;;;;27.65;15.18;;;19.40;63.60;;;;;;5108880;28;20494;-68
2021/09/15 06:00:07;;;;;;;23.55;13.43;;;19.40;64.00;;;;;;5091081;28;20028;-68
2021/09/15 06:02:34;;;;;;;30.20;14.82;;;19.30;64.00;;;;;;5097792;28;20031;-66
2021/09/15 06:05:02;;;;;;;23.77;13.23;;;19.40;64.30;;;;;;5109017;28;20032;-72
2021/09/15 06:07:29;;;;;;;24.63;13.23;;;19.30;64.30;;;;;;5109709;28;20327;-71
2021/09/15 06:09:56;;;;;;;26.23;12.27;;;19.30;64.70;;;;;;5110071;28;20031;-69
2021/09/15 06:12:27;;;;;;;21.60;11.60;;;19.30;64.50;;;;;;5099973;28;20030;-71
2021/09/15 06:14:54;;;;;;;22.20;11.68;;;19.30;65.00;;;;;;5108826;28;20091;-69
2021/09/15 06:17:22;;;;;;;24.50;12.82;;;19.20;64.90;;;;;;5110013;28;20036;-74
2021/09/15 06:19:49;;;;;;;25.17;11.65;;;19.20;65.20;;;;;;5089820;28;20031;-61
2021/09/15 06:22:16;;;;;;;21.05;11.50;;;19.30;65.20;;;;;;5093969;28;20529;-67
2021/09/15 06:24:44;;;;;;;12.35;6.55;;;19.30;65.20;;;;;;5104573;28;20038;-61
2021/09/15 06:27:12;;;;;;;21.83;13.32;;;19.10;63.20;;;;;;5107581;28;20028;-59
2021/09/15 06:29:39;;;;;;;20.10;12.05;;;19.00;64.60;;;;;;5103397;28;20042;-61
2021/09/15 06:32:10;;;;;;;21.10;15.65;;;18.70;64.60;;;;;;5099775;28;20063;-57
2021/09/15 06:34:37;;;;;;;31.00;23.38;;;18.60;65.80;;;;;;5107409;28;20436;-71
2021/09/15 06:37:05;;;;;;;29.25;21.85;;;18.60;66.40;;;;;;5108420;28;20034;-69
2021/09/15 06:39:33;;;;;;;26.08;16.80;;;18.60;66.20;;;;;;5089213;28;20020;-68
2021/09/15 06:42:00;;;;;;;28.83;17.45;;;18.60;66.00;;;;;;5101316;28;20559;-72
2021/09/15 06:44:28;;;;;;;25.00;17.60;;;18.70;66.20;;;;;;5107617;28;20051;-68
2021/09/15 06:46:55;;;;;;;24.05;17.08;;;18.70;66.00;;;;;;5107690;28;20035;-71
2021/09/15 06:49:23;;;;;;;26.48;17.90;;;18.80;65.80;;;;;;5103741;28;20016;-69
2021/09/15 06:51:50;;;;;;;26.88;18.80;;;18.80;65.80;;;;;;5102925;28;20486;-69
2021/09/15 06:54:18;;;;;;;25.88;18.42;;;18.80;65.90;;;;;;5094843;28;20089;-68
2021/09/15 06:56:45;;;;;;;24.80;17.65;;;18.80;65.80;;;;;;5112938;27;20350;-65
2021/09/15 06:59:13;;;;;;;25.75;19.75;;;18.80;65.80;;;;;;5109471;28;20036;-69
2021/09/15 07:01:40;;;;;;;23.67;19.55;;;18.80;66.00;;;;;;5105659;28;20462;-67
2021/09/15 07:04:08;;;;;;;24.50;19.52;;;18.80;66.00;;;;;;5106113;28;20037;-66
2021/09/15 07:06:41;;;;;;;28.80;21.17;;;18.80;66.10;;;;;;5112723;28;20023;-67
2021/09/15 07:09:09;;;;;;;23.75;18.80;;;18.80;66.20;;;;;;5107000;28;20107;-66
2021/09/15 07:11:45;;;;;;;23.13;20.02;;;18.80;66.20;;;;;;5106342;28;20505;-66
2021/09/15 07:14:13;;;;;;;27.38;20.90;;;18.70;66.10;;;;;;5094046;28;20077;-65
2021/09/15 07:16:44;;;;;;;24.60;18.98;;;18.70;66.20;;;;;;5094438;28;20024;-67
2021/09/15 07:19:15;;;;;;;24.45;18.83;;;18.70;66.50;;;;;;5110689;28;20028;-66
2021/09/15 07:21:52;;;;;;;26.02;19.42;;;18.70;66.70;;;;;;5104875;28;20062;-67
2021/09/15 07:24:20;;;;;;;24.48;20.02;;;18.70;66.80;;;;;;5111771;28;20019;-64
2021/09/15 07:26:48;;;;;;;22.08;19.08;;;18.70;66.80;;;;;;5111375;28;20076;-63
2021/09/15 07:29:19;;;;;;;25.13;18.38;;;18.70;66.80;;;;;;5112503;28;20028;-64
2021/09/15 07:31:46;;;;;;;22.63;17.13;;;18.60;66.90;;;;;;5104194;28;21330;-67
2021/09/15 07:34:32;;;;;;;21.40;16.85;;;18.60;67.20;;;;;;5116958;28;20025;-70
2021/09/15 07:36:59;;;;;;;17.27;14.32;;;18.60;68.00;;;;;;5112724;28;20218;-73
2021/09/15 07:39:27;;;;;;;18.55;13.30;;;18.60;68.50;;;;;;5116352;28;20028;-68
2021/09/15 07:41:54;;;;;;;18.10;13.70;;;18.60;68.70;;;;;;5107769;28;20063;-69
2021/09/15 07:44:21;;;;;;;17.60;13.02;;;18.60;68.80;;;;;;5114407;28;20450;-72
2021/09/15 07:46:49;;;;;;;15.95;12.57;;;18.60;68.80;;;;;;5116069;28;20462;-75
2021/09/15 07:49:16;;;;;;;21.98;13.93;;;18.60;68.80;;;;;;5107151;27;20031;-69
2021/09/15 07:51:44;;;;;;;17.15;12.52;;;18.60;68.90;;;;;;5108042;28;20039;-71
2021/09/15 07:54:11;;;;;;;15.80;10.88;;;18.60;68.60;;;;;;5113169;28;20077;-74
2021/09/15 07:56:39;;;;;;;14.90;11.63;;;18.60;68.70;;;;;;5112311;28;20019;-70
2021/09/15 07:59:06;;;;;;;14.10;11.40;;;18.50;68.70;;;;;;5111769;28;20015;-71
2021/09/15 08:01:34;;;;;;;12.27;9.77;;;18.40;68.50;;;;;;5110959;28;20450;-67
2021/09/15 08:04:02;;;;;;;14.60;10.95;;;18.40;68.70;;;;;;5112573;28;20047;-77
2021/09/15 08:07:09;;;;;;;16.60;11.10;;;18.40;68.70;;;;;;5111225;28;20024;-70
2021/09/15 08:09:57;;;;;;;16.67;10.90;;;18.40;68.60;;;;;;5107571;28;20042;-68
2021/09/15 08:12:42;;;;;;;15.45;9.88;;;18.40;68.40;;;;;;5100775;28;20035;-68
2021/09/15 08:15:49;;;;;;;12.30;9.23;;;18.30;68.60;;;;;;5111455;28;20089;-68
2021/09/15 08:18:39;;;;;;;11.77;8.80;;;18.20;68.80;;;;;;5030279;28;20037;-68
2021/09/15 08:21:10;;;;;;;12.15;8.98;;;18.20;68.90;;;;;;5093839;28;20406;-67
2021/09/15 08:23:37;;;;;;;12.32;9.25;;;18.20;68.90;;;;;;5101272;27;20045;-69
2021/09/15 08:26:05;;;;;;;11.38;8.45;;;18.10;68.90;;;;;;5110013;28;20466;-66
2021/09/15 08:28:36;;;;;;;14.73;8.57;;;18.10;69.40;;;;;;5092089;28;21390;-70
2021/09/15 08:31:09;;;;;;;11.65;8.63;;;18.10;69.30;;;;;;5106543;27;20490;-69
2021/09/15 08:33:36;;;;;;;10.90;8.38;;;18.10;69.20;;;;;;5101946;28;20034;-68
2021/09/15 08:36:04;;;;;;;11.18;7.68;;;18.00;69.30;;;;;;5112601;28;20374;-70
2021/09/15 08:38:32;;;;;;;12.25;7.80;;;18.00;69.40;;;;;;5106207;28;20454;-70
2021/09/15 08:41:01;;;;;;;13.35;7.90;;;17.90;69.50;;;;;;5105893;28;20158;-67
2021/09/15 08:43:33;;;;;;;12.40;7.47;;;17.90;69.40;;;;;;5080687;28;20046;-69
2021/09/15 08:46:04;;;;;;;9.85;6.72;;;17.90;69.40;;;;;;5110210;28;20537;-69
2021/09/15 08:48:37;;;;;;;11.27;7.32;;;17.90;69.40;;;;;;5106868;28;20092;-68
2021/09/15 08:51:06;;;;;;;11.95;6.63;;;17.90;69.40;;;;;;5105381;28;20431;-67
2021/09/15 08:53:36;;;;;;;11.90;6.63;;;17.90;69.10;;;;;;5101196;28;20023;-67
2021/09/15 08:56:04;;;;;;;8.70;6.15;;;17.90;69.10;;;;;;5106480;28;20527;-66
2021/09/15 08:58:31;;;;;;;11.30;6.80;;;17.90;69.20;;;;;;5084660;28;20043;-68
2021/09/15 09:01:20;;;;;;;11.95;6.50;;;17.80;69.10;;;;;;5105302;28;20390;-70
2021/09/15 09:03:55;;;;;;;8.38;6.05;;;17.80;69.10;;;;;;5098375;28;20096;-69
2021/09/15 09:06:31;;;;;;;7.75;5.43;;;17.80;69.00;;;;;;5104098;28;20019;-69
2021/09/15 09:09:01;;;;;;;11.82;6.32;;;17.80;69.10;;;;;;5106955;28;20402;-69
2021/09/15 09:11:34;;;;;;;11.00;5.82;;;17.80;69.10;;;;;;5090656;28;20532;-69
2021/09/15 09:14:07;;;;;;;9.95;5.10;;;17.70;69.20;;;;;;5101750;28;20038;-68
2021/09/15 09:16:41;;;;;;;8.20;5.20;;;17.70;69.10;;;;;;5088545;28;20076;-68
2021/09/15 09:19:12;;;;;;;7.50;5.22;;;17.70;69.30;;;;;;5090267;28;20470;-66
2021/09/15 09:21:42;;;;;;;5.95;4.47;;;17.70;69.30;;;;;;5101307;28;20028;-67
2021/09/15 09:24:13;;;;;;;8.23;5.10;;;17.60;69.30;;;;;;5104876;28;20122;-66
2021/09/15 09:26:50;;;;;;;6.75;4.50;;;17.60;69.30;;;;;;5109917;28;20032;-68
2021/09/15 09:29:23;;;;;;;8.60;4.88;;;17.60;69.20;;;;;;5089497;28;20127;-79
2021/09/15 09:31:57;;;;;;;9.73;5.18;;;17.60;69.30;;;;;;5086731;28;20131;-68
2021/09/15 09:34:25;;;;;;;10.02;4.57;;;17.60;69.30;;;;;;5105585;28;20111;-70
2021/09/15 09:37:01;;;;;;;7.32;4.47;;;17.60;69.30;;;;;;5109846;28;20138;-64
2021/09/15 09:39:57;;;;;;;5.25;3.88;;;17.60;69.40;;;;;;5088735;28;20547;-66
2021/09/15 09:42:26;;;;;;;7.97;4.32;;;17.60;69.30;;;;;;5099970;28;20028;-67
2021/09/15 09:45:00;;;;;;;6.18;3.53;;;17.60;69.20;;;;;;5106176;28;20042;-68
2021/09/15 09:47:27;;;;;;;5.63;4.15;;;17.50;69.20;;;;;;5107108;28;20023;-67
2021/09/15 09:50:06;;;;;;;9.25;4.07;;;17.50;69.50;;;;;;5110476;28;20098;-67
2021/09/15 09:52:52;;;;;;;7.10;4.47;;;17.60;69.50;;;;;;5095353;28;20024;-69
2021/09/15 09:55:21;;;;;;;7.25;3.90;;;17.50;69.50;;;;;;5109510;28;20038;-60
2021/09/15 09:57:56;;;;;;;9.85;3.90;;;17.50;69.30;;;;;;5106906;28;20040;-67
2021/09/15 10:00:25;;;;;;;8.00;3.60;;;17.40;69.50;;;;;;5091289;28;20059;-71
2021/09/15 10:02:54;;;;;;;5.88;3.53;;;17.50;69.80;;;;;;5101883;28;20043;-68
2021/09/15 10:05:23;;;;;;;7.03;3.78;;;17.40;69.70;;;;;;5108762;28;20043;-69
2021/09/15 10:07:51;;;;;;;5.57;3.22;;;17.50;69.80;;;;;;5108898;28;20031;-70
2021/09/15 10:10:22;;;;;;;6.28;3.38;;;17.40;69.70;;;;;;5108667;28;20343;-66
2021/09/15 10:12:51;;;;;;;5.22;3.00;;;17.40;69.60;;;;;;5097917;28;20020;-63
2021/09/15 10:15:19;;;;;;;6.07;3.15;;;17.40;69.60;;;;;;5108255;28;20026;-69
2021/09/15 10:17:53;;;;;;;8.05;3.38;;;17.40;70.10;;;;;;5109010;28;20059;-71
2021/09/15 10:20:32;;;;;;;6.32;2.42;;;17.40;69.50;;;;;;5108547;28;20538;-68
2021/09/15 10:23:00;;;;;;;7.00;3.50;;;17.40;69.50;;;;;;5094186;28;20032;-67
2021/09/15 10:25:41;;;;;;;5.90;2.72;;;17.40;69.50;;;;;;5108269;28;20019;-66
2021/09/15 10:28:10;;;;;;;5.97;2.78;;;17.40;69.40;;;;;;5090281;28;20474;-63
2021/09/15 10:30:49;;;;;;;4.35;2.55;;;17.40;69.40;;;;;;5104129;28;20022;-71
2021/09/15 10:33:38;;;;;;;5.35;3.13;;;17.40;69.40;;;;;;5097314;28;20359;-69
2021/09/15 10:36:11;;;;;;;6.00;2.83;;;17.40;69.40;;;;;;5104465;28;20077;-66
2021/09/15 10:39:01;;;;;;;4.65;2.55;;;17.40;69.50;;;;;;5105572;28;20031;-71
2021/09/15 10:41:39;;;;;;;5.30;2.95;;;17.40;69.50;;;;;;5101915;28;20031;-67
2021/09/15 10:54:46;;;;;;;5.47;2.35;;;17.40;69.60;;;;;;5107716;28;20047;-67
2021/09/15 10:57:28;;;;;;;4.82;2.40;;;17.30;69.60;;;;;;5106010;28;20035;-65
2021/09/15 11:00:01;;;;;;;3.50;2.28;;;17.30;69.60;;;;;;5109494;28;20055;-65
2021/09/15 11:02:33;;;;;;;5.22;2.45;;;17.30;69.70;;;;;;5097505;28;20016;-63
2021/09/15 11:05:26;;;;;;;5.50;2.50;;;17.30;69.70;;;;;;5107108;28;20450;-68
2021/09/15 11:07:54;;;;;;;2.72;1.88;;;17.30;70.00;;;;;;5105718;28;20159;-72
2021/09/15 11:10:37;;;;;;;3.45;1.90;;;17.30;70.10;;;;;;5108193;28;20015;-69
2021/09/15 11:13:09;;;;;;;3.75;2.60;;;17.30;69.90;;;;;;5096829;28;20031;-64
2021/09/15 11:15:38;;;;;;;5.97;2.80;;;17.30;69.90;;;;;;5108392;28;20157;-72
2021/09/15 11:18:06;;;;;;;4.90;2.63;;;17.30;69.90;;;;;;5108689;28;20036;-66
2021/09/15 11:20:37;;;;;;;3.30;1.95;;;17.30;70.00;;;;;;5107753;28;20048;-63
2021/09/15 11:23:28;;;;;;;6.47;2.60;;;17.30;70.00;;;;;;5094238;28;20112;-65
2021/09/15 11:25:56;;;;;;;2.55;1.63;;;17.30;70.10;;;;;;5105073;28;20028;-70
2021/09/15 11:28:25;;;;;;;2.70;1.58;;;17.20;70.10;;;;;;5108340;28;20065;-70
2021/09/15 11:30:53;;;;;;;5.28;2.20;;;17.20;69.90;;;;;;5104081;28;20025;-65
2021/09/15 11:33:38;;;;;;;5.20;1.88;;;17.30;70.00;;;;;;5093211;28;20023;-66
2021/09/15 11:36:09;;;;;;;3.83;2.30;;;17.20;69.90;;;;;;5105825;28;20112;-67
2021/09/15 11:38:41;;;;;;;4.30;1.80;;;17.20;70.00;;;;;;5108814;28;20043;-72
2021/09/15 11:41:15;;;;;;;2.80;1.77;;;17.20;70.10;;;;;;5097457;28;20027;-66
2021/09/15 11:43:47;;;;;;;4.05;2.00;;;17.20;70.00;;;;;;5112228;28;20039;-70
2021/09/15 11:46:47;;;;;;;3.35;1.83;;;17.20;70.00;;;;;;5097262;28;20155;-69
2021/09/15 11:49:15;;;;;;;3.95;1.95;;;17.20;70.00;;;;;;5112469;28;20040;-76
2021/09/15 11:51:42;;;;;;;6.35;1.85;;;17.20;70.00;;;;;;5113217;28;20020;-69
2021/09/15 11:54:15;;;;;;;4.78;1.90;;;17.20;70.00;;;;;;5115019;28;20128;-66
2021/09/15 11:56:53;;;;;;;3.47;1.77;;;17.20;70.10;;;;;;5115188;28;20031;-70
2021/09/15 11:59:23;;;;;;;3.28;1.77;;;17.20;70.00;;;;;;5115237;28;20226;-73
2021/09/15 12:01:51;;;;;;;4.93;1.90;;;17.20;70.10;;;;;;5095260;28;20032;-71
2021/09/15 12:04:22;;;;;;;3.38;1.90;;;17.10;70.10;;;;;;5112988;28;20027;-74
2021/09/15 12:06:50;;;;;;;3.72;1.73;;;17.10;70.20;;;;;;5111795;28;20099;-72
2021/09/15 12:09:18;;;;;;;3.65;1.70;;;17.10;70.20;;;;;;5112657;28;20108;-73
2021/09/15 12:11:48;;;;;;;3.25;1.58;;;17.10;70.30;;;;;;5112588;28;20478;-69
2021/09/15 12:14:16;;;;;;;6.43;1.88;;;17.10;70.30;;;;;;5113014;28;20151;-70
2021/09/15 12:16:44;;;;;;;3.70;2.10;;;17.10;70.40;;;;;;5094938;28;20039;-74
2021/09/15 12:19:20;;;;;;;3.88;1.42;;;17.10;70.40;;;;;;5114730;28;20032;-77
2021/09/15 12:21:51;;;;;;;4.65;1.67;;;17.10;70.40;;;;;;5092718;28;20151;-76
2021/09/15 12:24:20;;;;;;;3.10;1.52;;;17.00;70.40;;;;;;5114733;28;20015;-74
2021/09/15 12:26:48;;;;;;;2.05;1.50;;;17.00;70.50;;;;;;5104794;28;20478;-70
2021/09/15 12:29:21;;;;;;;7.00;1.33;;;17.00;70.60;;;;;;5071883;28;20467;-73
2021/09/15 12:32:02;;;;;;;2.45;1.33;;;17.00;70.60;;;;;;5107390;28;20228;-71
2021/09/15 12:34:32;;;;;;;4.10;1.88;;;17.00;70.60;;;;;;5112036;28;20026;-73
2021/09/15 12:37:09;;;;;;;3.20;1.50;;;17.00;70.60;;;;;;5090048;28;20099;-74
2021/09/15 12:39:59;;;;;;;5.20;1.95;;;17.00;70.60;;;;;;5091244;28;20028;-71
2021/09/15 12:42:30;;;;;;;3.17;1.35;;;17.00;70.70;;;;;;5089522;28;20493;-74
2021/09/15 12:45:11;;;;;;;2.03;1.35;;;17.00;70.60;;;;;;5086497;28;20081;-71
2021/09/15 12:48:02;;;;;;;2.28;1.25;;;16.90;70.60;;;;;;5088895;28;20082;-69
2021/09/15 12:50:34;;;;;;;3.33;1.50;;;17.00;70.80;;;;;;5089410;28;20487;-70
2021/09/15 12:53:08;;;;;;;3.15;1.20;;;16.90;71.00;;;;;;5097569;28;20015;-69
2021/09/15 12:55:44;;;;;;;4.95;1.33;;;16.90;71.10;;;;;;5111662;28;20450;-71
2021/09/15 12:58:24;;;;;;;2.58;1.30;;;16.90;71.00;;;;;;5092466;28;20035;-68
2021/09/15 13:00:51;;;;;;;2.95;1.40;;;16.90;71.00;;;;;;5114250;28;20495;-64
2021/09/15 13:03:21;;;;;;;4.13;1.40;;;16.90;70.90;;;;;;5110670;28;20026;-67
2021/09/15 13:05:50;;;;;;;3.50;1.40;;;16.90;70.90;;;;;;5114664;28;20434;-75
2021/09/15 13:08:33;;;;;;;3.28;1.42;;;16.80;70.90;;;;;;5096796;28;20077;-70
2021/09/15 13:11:01;;;;;;;4.40;1.65;;;16.80;70.80;;;;;;5105606;28;20030;-71